createdAt,value
2018-11-05T00:00:48.395Z,98675.13
2018-11-05T00:03:25.435Z,98670.61
2018-11-05T00:05:57.919Z,98663.30
2018-11-05T00:08:27.109Z,98666.53
2018-11-05T00:10:56.516Z,98672.78
2018-11-05T00:13:25.226Z,98670.12
2018-11-05T00:15:56.277Z,98672.14
2018-11-05T00:18:24.869Z,98671.77
2018-11-05T00:20:54.473Z,98678.62
2018-11-05T00:23:23.804Z,98669.36
2018-11-05T00:25:53.049Z,98665.95
2018-11-05T00:28:22.016Z,98664.43
2018-11-05T00:30:51.429Z,98661.97
2018-11-05T00:33:20.204Z,98661.13
2018-11-05T00:35:50.269Z,98657.45
2018-11-05T00:38:20.001Z,98647.82
2018-11-05T00:40:49.064Z,98652.05
2018-11-05T00:43:18.876Z,98646.89
2018-11-05T00:45:47.568Z,98640.88
2018-11-05T00:48:16.960Z,98649.34
2018-11-05T00:50:46.549Z,98646.58
2018-11-05T00:53:15.486Z,98654.59
2018-11-05T00:55:45.571Z,98653.58
2018-11-05T00:58:14.512Z,98653.33
2018-11-05T01:00:43.885Z,98658.76
2018-11-05T01:03:12.996Z,98651.47
2018-11-05T01:05:41.843Z,98649.93
2018-11-05T01:08:10.733Z,98650.07
2018-11-05T01:10:40.037Z,98640.62
2018-11-05T01:13:09.235Z,98636.90
2018-11-05T01:15:38.437Z,98637.88
2018-11-05T01:18:07.897Z,98634.11
2018-11-05T01:20:36.764Z,98622.99
2018-11-05T01:23:07.384Z,98624.06
2018-11-05T01:25:37.692Z,98618.30
2018-11-05T01:28:07.279Z,98610.84
2018-11-05T01:30:37.079Z,98611.98
2018-11-05T01:33:06.501Z,98610.52
2018-11-05T01:35:35.762Z,98598.36
2018-11-05T01:38:04.683Z,98601.74
2018-11-05T01:40:33.680Z,98606.19
2018-11-05T01:43:02.288Z,98607.94
2018-11-05T01:45:31.664Z,98606.33
2018-11-05T01:48:01.270Z,98604.05
2018-11-05T01:50:30.449Z,98595.75
2018-11-05T01:52:59.599Z,98578.67
2018-11-05T01:55:28.513Z,98576.02
2018-11-05T01:57:58.090Z,98577.83
2018-11-05T02:00:27.704Z,98572.53
2018-11-05T02:02:57.411Z,98578.41
2018-11-05T02:05:25.987Z,98581.20
2018-11-05T02:07:56.800Z,98575.77
2018-11-05T02:10:26.810Z,98573.61
2018-11-05T02:12:55.993Z,98572.88
2018-11-05T02:15:25.936Z,98578.24
2018-11-05T02:17:54.913Z,98578.16
2018-11-05T02:20:23.817Z,98579.27
2018-11-05T02:22:52.653Z,98569.16
2018-11-05T02:25:22.050Z,98558.88
2018-11-05T02:27:51.291Z,98567.97
2018-11-05T02:30:20.588Z,98570.50
2018-11-05T02:32:50.082Z,98571.52
2018-11-05T02:35:19.787Z,98577.42
2018-11-05T02:37:48.991Z,98570.48
2018-11-05T02:40:20.580Z,98567.13
2018-11-05T02:42:49.908Z,98568.34
2018-11-05T02:45:20.616Z,98577.11
2018-11-05T02:47:50.191Z,98569.86
2018-11-05T02:50:19.086Z,98566.78
2018-11-05T02:52:48.443Z,98565.34
2018-11-05T02:55:17.437Z,98564.14
2018-11-05T02:57:47.358Z,98563.77
2018-11-05T03:00:18.825Z,98551.81
2018-11-05T03:02:48.031Z,98549.74
2018-11-05T03:05:18.740Z,98538.20
2018-11-05T03:07:48.220Z,98531.90
2018-11-05T03:10:18.008Z,98524.70
2018-11-05T03:12:47.752Z,98516.48
2018-11-05T03:15:17.945Z,98516.69
2018-11-05T03:17:47.638Z,98513.79
2018-11-05T03:20:17.167Z,98520.03
2018-11-05T03:22:46.560Z,98527.61
2018-11-05T03:25:15.754Z,98528.33
2018-11-05T03:27:45.355Z,98522.20
2018-11-05T03:30:16.784Z,98528.08
2018-11-05T03:32:45.423Z,98526.19
2018-11-05T03:35:15.142Z,98525.62
2018-11-05T03:37:45.118Z,98513.36
2018-11-05T03:40:14.548Z,98507.12
2018-11-05T03:42:43.586Z,98499.30
2018-11-05T03:45:13.660Z,98497.33
2018-11-05T03:47:42.588Z,98505.14
2018-11-05T03:50:15.928Z,98494.00
2018-11-05T03:52:46.137Z,98493.36
2018-11-05T03:55:15.642Z,98500.70
2018-11-05T03:57:45.785Z,98507.12
2018-11-05T04:00:16.269Z,98518.06
2018-11-05T04:02:45.203Z,98521.91
2018-11-05T04:05:14.464Z,98504.29
2018-11-05T04:07:44.096Z,98480.09
2018-11-05T04:10:13.691Z,98481.16
2018-11-05T04:12:44.030Z,98480.19
2018-11-05T04:15:13.114Z,98485.59
2018-11-05T04:17:41.958Z,98488.59
2018-11-05T04:20:12.855Z,98500.39
2018-11-05T04:22:42.195Z,98487.77
2018-11-05T04:25:10.863Z,98487.05
2018-11-05T04:27:39.771Z,98484.81
2018-11-05T04:30:11.878Z,98484.11
2018-11-05T04:32:41.013Z,98487.23
2018-11-05T04:35:10.604Z,98467.80
2018-11-05T04:37:40.163Z,98474.73
2018-11-05T04:40:10.632Z,98472.68
2018-11-05T04:42:39.589Z,98476.95
2018-11-05T04:45:10.042Z,98488.90
2018-11-05T04:47:39.312Z,98493.95
2018-11-05T04:50:09.615Z,98493.00
2018-11-05T04:52:39.175Z,98488.96
2018-11-05T04:55:09.109Z,98495.30
2018-11-05T04:57:38.694Z,98497.58
2018-11-05T05:00:10.929Z,98493.13
2018-11-05T05:02:41.083Z,98476.89
2018-11-05T05:05:10.928Z,98472.45
2018-11-05T05:07:42.854Z,98483.86
2018-11-05T05:10:12.436Z,98486.34
2018-11-05T05:12:42.389Z,98485.67
2018-11-05T05:15:11.703Z,98484.47
2018-11-05T05:17:41.260Z,98487.41
2018-11-05T05:20:12.345Z,98476.46
2018-11-05T05:22:41.398Z,98478.39
2018-11-05T05:25:10.739Z,98479.12
2018-11-05T05:27:40.095Z,98474.70
2018-11-05T05:30:13.390Z,98465.08
2018-11-05T05:32:42.193Z,98464.48
2018-11-05T05:35:11.193Z,98465.76
2018-11-05T05:37:40.647Z,98477.19
2018-11-05T05:40:09.953Z,98470.80
2018-11-05T05:42:40.034Z,98469.59
2018-11-05T05:45:10.255Z,98474.97
2018-11-05T05:47:39.640Z,98471.72
2018-11-05T05:50:11.994Z,98477.25
2018-11-05T05:52:41.967Z,98475.84
2018-11-05T05:55:11.032Z,98477.78
2018-11-05T05:57:39.992Z,98473.56
2018-11-05T06:00:10.508Z,98478.03
2018-11-05T06:02:39.859Z,98475.86
2018-11-05T06:05:10.068Z,98476.83
2018-11-05T06:07:40.281Z,98486.68
2018-11-05T06:10:09.909Z,98484.99
2018-11-05T06:12:38.992Z,98486.80
2018-11-05T06:15:10.728Z,98483.84
2018-11-05T06:17:39.671Z,98484.69
2018-11-05T06:20:12.039Z,98489.63
2018-11-05T06:22:41.235Z,98488.30
2018-11-05T06:25:10.543Z,98481.77
2018-11-05T06:27:39.817Z,98484.16
2018-11-05T06:30:11.531Z,98494.08
2018-11-05T06:32:41.483Z,98493.95
2018-11-05T06:35:12.041Z,98481.21
2018-11-05T06:37:41.624Z,98483.38
2018-11-05T06:40:12.697Z,98479.41
2018-11-05T06:42:42.465Z,98484.41
2018-11-05T06:45:13.432Z,98480.55
2018-11-05T06:47:43.826Z,98482.17
2018-11-05T06:50:14.883Z,98477.72
2018-11-05T06:52:45.220Z,98478.31
2018-11-05T06:55:14.790Z,98486.63
2018-11-05T06:57:43.579Z,98482.24
2018-11-05T07:00:14.813Z,98483.45
2018-11-05T07:02:46.958Z,98483.25
2018-11-05T07:05:29.020Z,98479.28
2018-11-05T07:07:58.953Z,98478.56
2018-11-05T07:10:30.962Z,98485.81
2018-11-05T07:13:01.742Z,98483.17
2018-11-05T07:15:33.608Z,98490.72
2018-11-05T07:18:05.684Z,98488.83
2018-11-05T07:20:47.586Z,98488.11
2018-11-05T07:23:25.853Z,98483.53
2018-11-05T07:25:59.054Z,98488.95
2018-11-05T07:28:32.063Z,98495.33
2018-11-05T07:31:04.094Z,98497.77
2018-11-05T07:33:38.420Z,98484.78
2018-11-05T07:36:07.981Z,98484.97
2018-11-05T07:38:37.178Z,98489.42
2018-11-05T07:41:08.249Z,98481.35
2018-11-05T07:43:46.945Z,98483.45
2018-11-05T07:46:28.586Z,98480.52
2018-11-05T07:49:02.211Z,98478.67
2018-11-05T07:51:34.264Z,98480.20
2018-11-05T07:54:06.363Z,98477.59
2018-11-05T07:56:48.094Z,98473.73
2018-11-05T07:59:21.130Z,98479.30
2018-11-05T08:02:00.430Z,98483.64
2018-11-05T08:04:38.787Z,98491.95
2018-11-05T08:07:13.589Z,98486.77
2018-11-05T08:09:52.366Z,98478.97
2018-11-05T08:12:36.026Z,98486.44
2018-11-05T08:15:09.997Z,98484.51
2018-11-05T08:17:39.458Z,98478.30
2018-11-05T08:20:11.463Z,98491.06
2018-11-05T08:22:41.140Z,98479.13
2018-11-05T08:25:10.821Z,98472.28
2018-11-05T08:27:39.993Z,98467.96
2018-11-05T08:30:13.306Z,98462.52
2018-11-05T08:32:43.004Z,98463.38
2018-11-05T08:35:13.138Z,98464.95
2018-11-05T08:37:43.246Z,98464.95
2018-11-05T08:40:14.391Z,98455.91
2018-11-05T08:42:43.993Z,98455.98
2018-11-05T08:45:16.737Z,98463.72
2018-11-05T08:47:46.096Z,98459.02
2018-11-05T08:50:26.826Z,98447.94
2018-11-05T08:52:57.355Z,98454.45
2018-11-05T08:55:27.288Z,98456.13
2018-11-05T08:57:56.371Z,98456.09
2018-11-05T09:00:30.259Z,98448.75
2018-11-05T09:02:59.703Z,98456.58
2018-11-05T09:05:29.271Z,98449.59
2018-11-05T09:07:58.068Z,98445.22
2018-11-05T09:10:27.462Z,98446.84
2018-11-05T09:12:56.279Z,98448.36
2018-11-05T09:15:25.491Z,98461.98
2018-11-05T09:17:54.367Z,98455.48
2018-11-05T09:20:23.880Z,98454.60
2018-11-05T09:22:53.691Z,98440.97
2018-11-05T09:25:22.514Z,98447.70
2018-11-05T09:27:52.141Z,98443.98
2018-11-05T09:30:22.576Z,98444.24
2018-11-05T09:32:51.452Z,98449.38
2018-11-05T09:35:20.362Z,98453.01
2018-11-05T09:37:49.609Z,98449.03
2018-11-05T09:40:20.885Z,98436.19
2018-11-05T09:42:50.620Z,98444.06
2018-11-05T09:45:22.107Z,98446.66
2018-11-05T09:47:51.204Z,98439.73
2018-11-05T09:50:20.291Z,98434.86
2018-11-05T09:52:49.564Z,98427.92
2018-11-05T09:55:18.549Z,98431.30
2018-11-05T09:57:48.240Z,98446.73
2018-11-05T10:00:19.060Z,98440.31
2018-11-05T10:02:53.458Z,98430.39
2018-11-05T10:05:22.609Z,98426.13
2018-11-05T10:07:51.393Z,98437.50
2018-11-05T10:10:20.434Z,98430.87
2018-11-05T10:12:49.099Z,98428.82
2018-11-05T10:15:19.138Z,98424.34
2018-11-05T10:17:48.064Z,98426.26
2018-11-05T10:20:18.370Z,98422.95
2018-11-05T10:22:47.766Z,98416.17
2018-11-05T10:25:17.108Z,98411.30
2018-11-05T10:27:46.297Z,98423.80
2018-11-05T10:30:17.322Z,98415.59
2018-11-05T10:32:46.469Z,98413.85
2018-11-05T10:35:16.380Z,98410.56
2018-11-05T10:37:46.011Z,98406.88
2018-11-05T10:40:16.785Z,98404.95
2018-11-05T10:42:46.804Z,98406.13
2018-11-05T10:45:17.253Z,98408.32
2018-11-05T10:47:46.801Z,98403.67
2018-11-05T10:50:17.287Z,98397.88
2018-11-05T10:52:50.098Z,98400.03
2018-11-05T10:55:19.050Z,98400.93
2018-11-05T10:57:49.609Z,98401.47
2018-11-05T11:00:25.401Z,98391.41
2018-11-05T11:03:00.495Z,98387.80
2018-11-05T11:05:31.130Z,98396.29
2018-11-05T11:08:00.505Z,98399.98
2018-11-05T11:10:30.076Z,98399.30
2018-11-05T11:12:59.223Z,98395.38
2018-11-05T11:15:28.620Z,98397.73
2018-11-05T11:17:58.540Z,98393.89
2018-11-05T11:20:28.077Z,98385.66
2018-11-05T11:22:57.355Z,98382.64
2018-11-05T11:25:27.226Z,98374.78
2018-11-05T11:27:56.856Z,98375.14
2018-11-05T11:30:25.669Z,98374.26
2018-11-05T11:32:54.584Z,98364.09
2018-11-05T11:35:23.680Z,98371.53
2018-11-05T11:37:54.488Z,98365.38
2018-11-05T11:40:23.963Z,98354.64
2018-11-05T11:42:54.429Z,98348.66
2018-11-05T11:45:24.354Z,98343.47
2018-11-05T11:47:52.999Z,98340.39
2018-11-05T11:50:22.048Z,98327.76
2018-11-05T11:52:51.222Z,98329.88
2018-11-05T11:55:21.662Z,98322.17
2018-11-05T11:57:50.847Z,98318.05
2018-11-05T12:00:22.048Z,98306.51
2018-11-05T12:02:51.749Z,98309.30
2018-11-05T12:05:21.889Z,98315.87
2018-11-05T12:07:50.840Z,98307.80
2018-11-05T12:10:21.540Z,98298.94
2018-11-05T12:12:50.478Z,98287.45
2018-11-05T12:15:20.771Z,98286.32
2018-11-05T12:17:50.677Z,98284.72
2018-11-05T12:20:22.390Z,98283.88
2018-11-05T12:22:51.616Z,98288.73
2018-11-05T12:25:21.463Z,98282.86
2018-11-05T12:27:51.473Z,98277.01
2018-11-05T12:30:21.809Z,98272.61
2018-11-05T12:32:51.556Z,98266.80
2018-11-05T12:35:21.575Z,98268.41
2018-11-05T12:37:52.274Z,98263.08
2018-11-05T12:40:22.202Z,98260.87
2018-11-05T12:42:51.408Z,98258.72
2018-11-05T12:45:20.312Z,98250.04
2018-11-05T12:47:49.572Z,98247.47
2018-11-05T12:50:21.399Z,98234.67
2018-11-05T12:52:51.591Z,98238.29
2018-11-05T12:55:20.208Z,98241.10
2018-11-05T12:57:49.801Z,98243.02
2018-11-05T13:00:20.487Z,98248.56
2018-11-05T13:02:53.369Z,98261.13
2018-11-05T13:05:22.309Z,98259.01
2018-11-05T13:07:51.498Z,98253.47
2018-11-05T13:10:20.146Z,98256.12
2018-11-05T13:12:49.657Z,98249.33
2018-11-05T13:15:19.299Z,98243.85
2018-11-05T13:17:48.028Z,98243.48
2018-11-05T13:20:18.342Z,98244.76
2018-11-05T13:22:48.411Z,98243.84
2018-11-05T13:25:17.333Z,98243.05
2018-11-05T13:27:47.648Z,98243.51
2018-11-05T13:30:16.889Z,98235.44
2018-11-05T13:32:45.679Z,98232.11
2018-11-05T13:35:15.929Z,98230.44
2018-11-05T13:37:45.690Z,98230.44
2018-11-05T13:40:18.361Z,98236.23
2018-11-05T13:42:47.756Z,98234.05
2018-11-05T13:45:17.355Z,98230.56
2018-11-05T13:47:46.524Z,98224.03
2018-11-05T13:50:15.871Z,98222.48
2018-11-05T13:52:44.595Z,98222.01
2018-11-05T13:55:14.444Z,98221.89
2018-11-05T13:57:44.272Z,98214.32
2018-11-05T14:00:16.201Z,98214.03
2018-11-05T14:02:45.280Z,98208.69
2018-11-05T14:05:14.877Z,98206.28
2018-11-05T14:07:43.491Z,98208.67
2018-11-05T14:10:14.590Z,98207.94
2018-11-05T14:12:44.659Z,98206.03
2018-11-05T14:15:13.273Z,98212.05
2018-11-05T14:17:42.949Z,98217.11
2018-11-05T14:20:13.336Z,98219.35
2018-11-05T14:22:43.139Z,98219.78
2018-11-05T14:25:14.225Z,98217.34
2018-11-05T14:27:45.554Z,98221.29
2018-11-05T14:30:14.741Z,98213.49
2018-11-05T14:32:44.713Z,98214.86
2018-11-05T14:35:13.669Z,98212.34
2018-11-05T14:37:42.694Z,98211.85
2018-11-05T14:40:13.348Z,98220.42
2018-11-05T14:42:42.974Z,98231.19
2018-11-05T14:45:14.156Z,98229.37
2018-11-05T14:47:44.900Z,98236.69
2018-11-05T14:50:15.177Z,98235.71
2018-11-05T14:52:44.876Z,98236.22
2018-11-05T14:55:15.622Z,98246.58
2018-11-05T14:57:45.575Z,98239.02
2018-11-05T15:00:16.276Z,98232.68
2018-11-05T15:02:46.056Z,98229.97
2018-11-05T15:05:15.307Z,98239.80
2018-11-05T15:07:45.300Z,98238.36
2018-11-05T15:10:15.866Z,98233.28
2018-11-05T15:12:45.341Z,98248.97
2018-11-05T15:15:14.858Z,98250.59
2018-11-05T15:17:46.551Z,98254.92
2018-11-05T15:20:17.039Z,98261.14
2018-11-05T15:22:46.085Z,98260.65
2018-11-05T15:25:15.636Z,98255.68
2018-11-05T15:27:44.913Z,98257.12
2018-11-05T15:30:22.493Z,98258.06
2018-11-05T15:32:52.253Z,98250.80
2018-11-05T15:35:21.920Z,98248.50
2018-11-05T15:37:51.151Z,98258.30
2018-11-05T15:40:21.371Z,98251.47
2018-11-05T15:42:50.736Z,98246.72
2018-11-05T15:45:21.264Z,98241.83
2018-11-05T15:47:52.525Z,98239.73
2018-11-05T15:50:22.312Z,98239.70
2018-11-05T15:52:51.375Z,98245.64
2018-11-05T15:55:19.653Z,98255.61
2018-11-05T15:57:49.971Z,98247.63
2018-11-05T16:00:26.293Z,98247.27
2018-11-05T16:02:58.604Z,98238.66
2018-11-05T16:05:28.258Z,98241.88
2018-11-05T16:07:57.295Z,98234.53
2018-11-05T16:10:26.554Z,98237.05
2018-11-05T16:12:56.096Z,98230.48
2018-11-05T16:15:25.146Z,98235.59
2018-11-05T16:17:54.015Z,98237.68
2018-11-05T16:20:23.643Z,98238.80
2018-11-05T16:22:53.316Z,98237.75
2018-11-05T16:25:22.467Z,98243.13
2018-11-05T16:27:51.527Z,98247.45
2018-11-05T16:30:21.921Z,98248.64
2018-11-05T16:32:52.279Z,98246.02
2018-11-05T16:35:22.178Z,98246.05
2018-11-05T16:37:52.035Z,98250.05
2018-11-05T16:40:21.115Z,98246.24
2018-11-05T16:42:51.325Z,98245.75
2018-11-05T16:45:20.856Z,98244.17
2018-11-05T16:47:51.118Z,98240.04
2018-11-05T16:50:22.778Z,98246.11
2018-11-05T16:52:51.554Z,98248.80
2018-11-05T16:55:20.840Z,98268.17
2018-11-05T16:57:50.071Z,98272.99
2018-11-05T17:00:19.304Z,98278.13
2018-11-05T17:02:49.413Z,98276.23
2018-11-05T17:05:18.121Z,98280.95
2018-11-05T17:07:47.509Z,98275.37
2018-11-05T17:10:16.425Z,98276.08
2018-11-05T17:12:45.949Z,98275.20
2018-11-05T17:15:16.252Z,98271.27
2018-11-05T17:17:45.280Z,98281.89
2018-11-05T17:20:16.614Z,98275.09
2018-11-05T17:22:46.233Z,98277.12
2018-11-05T17:25:15.998Z,98278.23
2018-11-05T17:27:46.018Z,98279.08
2018-11-05T17:30:18.178Z,98277.91
2018-11-05T17:32:48.012Z,98273.44
2018-11-05T17:35:17.496Z,98275.34
2018-11-05T17:37:47.396Z,98273.66
2018-11-05T17:40:17.672Z,98278.43
2018-11-05T17:42:46.386Z,98270.95
2018-11-05T17:45:16.950Z,98269.77
2018-11-05T17:47:46.707Z,98276.97
2018-11-05T17:50:16.896Z,98283.69
2018-11-05T17:52:46.285Z,98283.83
2018-11-05T17:55:15.967Z,98290.55
2018-11-05T17:57:45.810Z,98278.19
2018-11-05T18:00:18.485Z,98281.60
2018-11-05T18:02:48.152Z,98276.92
2018-11-05T18:05:17.423Z,98276.23
2018-11-05T18:07:47.189Z,98272.33
2018-11-05T18:10:16.537Z,98277.08
2018-11-05T18:12:45.308Z,98274.20
2018-11-05T18:15:14.624Z,98273.85
2018-11-05T18:17:45.196Z,98271.44
2018-11-05T18:20:14.972Z,98262.02
2018-11-05T18:22:44.736Z,98260.25
2018-11-05T18:25:17.866Z,98261.86
2018-11-05T18:27:46.813Z,98261.38
2018-11-05T18:30:16.709Z,98257.74
2018-11-05T18:32:46.057Z,98252.30
2018-11-05T18:35:15.532Z,98259.42
2018-11-05T18:37:45.813Z,98257.86
2018-11-05T18:40:15.820Z,98256.69
2018-11-05T18:42:45.354Z,98251.27
2018-11-05T18:45:14.883Z,98245.05
2018-11-05T18:47:44.066Z,98248.27
2018-11-05T18:50:14.449Z,98237.31
2018-11-05T18:52:43.721Z,98232.48
2018-11-05T18:55:14.780Z,98234.36
2018-11-05T18:57:43.896Z,98243.53
2018-11-05T19:00:20.218Z,98243.53
2018-11-05T19:02:50.496Z,98246.05
2018-11-05T19:05:19.978Z,98248.95
2018-11-05T19:07:49.594Z,98247.16
2018-11-05T19:10:18.660Z,98242.61
2018-11-05T19:12:48.380Z,98244.42
2018-11-05T19:15:17.332Z,98241.02
2018-11-05T19:17:47.473Z,98240.84
2018-11-05T19:20:16.184Z,98254.25
2018-11-05T19:22:45.671Z,98258.53
2018-11-05T19:25:15.681Z,98251.42
2018-11-05T19:27:45.264Z,98260.57
2018-11-05T19:30:16.658Z,98262.51
2018-11-05T19:32:46.220Z,98264.06
2018-11-05T19:35:15.973Z,98261.92
2018-11-05T19:37:45.449Z,98264.35
2018-11-05T19:40:15.332Z,98268.55
2018-11-05T19:42:45.305Z,98273.40
2018-11-05T19:45:15.981Z,98271.61
2018-11-05T19:47:45.975Z,98268.70
2018-11-05T19:50:16.558Z,98277.87
2018-11-05T19:52:45.941Z,98283.65
2018-11-05T19:55:16.264Z,98283.67
2018-11-05T19:57:46.458Z,98278.25
2018-11-05T20:00:15.948Z,98277.41
2018-11-05T20:02:45.108Z,98279.08
2018-11-05T20:05:15.025Z,98289.31
2018-11-05T20:07:44.688Z,98284.63
2018-11-05T20:10:14.536Z,98280.88
2018-11-05T20:12:44.119Z,98276.09
2018-11-05T20:15:13.337Z,98280.53
2018-11-05T20:17:43.457Z,98277.55
2018-11-05T20:20:13.890Z,98289.92
2018-11-05T20:22:45.670Z,98279.82
2018-11-05T20:25:14.853Z,98275.22
2018-11-05T20:27:44.695Z,98279.55
2018-11-05T20:30:16.817Z,98282.68
2018-11-05T20:32:47.010Z,98281.50
2018-11-05T20:35:16.272Z,98278.59
2018-11-05T20:37:45.090Z,98289.52
2018-11-05T20:40:18.142Z,98290.41
2018-11-05T20:42:47.990Z,98283.66
2018-11-05T20:45:17.742Z,98282.21
2018-11-05T20:47:46.936Z,98276.92
2018-11-05T20:50:16.839Z,98279.20
2018-11-05T20:52:45.693Z,98291.56
2018-11-05T20:55:15.395Z,98299.91
2018-11-05T20:57:44.188Z,98300.86
2018-11-05T21:00:14.597Z,98308.08
2018-11-05T21:02:43.768Z,98296.81
2018-11-05T21:05:12.925Z,98293.69
2018-11-05T21:07:42.938Z,98292.64
2018-11-05T21:10:12.600Z,98291.05
2018-11-05T21:12:42.042Z,98285.31
2018-11-05T21:15:16.244Z,98290.80
2018-11-05T21:17:46.220Z,98286.63
2018-11-05T21:20:15.294Z,98293.93
2018-11-05T21:22:44.671Z,98294.33
2018-11-05T21:25:14.102Z,98289.48
2018-11-05T21:27:44.030Z,98295.25
2018-11-05T21:30:15.519Z,98297.45
2018-11-05T21:32:45.365Z,98302.87
2018-11-05T21:35:15.552Z,98299.86
2018-11-05T21:37:44.951Z,98301.69
2018-11-05T21:40:14.916Z,98306.20
2018-11-05T21:42:43.800Z,98301.94
2018-11-05T21:45:14.059Z,98303.42
2018-11-05T21:47:43.355Z,98305.29
2018-11-05T21:50:14.946Z,98305.11
2018-11-05T21:52:44.722Z,98302.95
2018-11-05T21:55:13.981Z,98303.14
2018-11-05T21:57:43.730Z,98299.84
2018-11-05T22:00:16.774Z,98305.72
2018-11-05T22:02:51.241Z,98310.56
2018-11-05T22:05:20.249Z,98304.48
2018-11-05T22:07:49.779Z,98299.45
2018-11-05T22:10:18.858Z,98301.02
2018-11-05T22:12:48.307Z,98301.13
2018-11-05T22:15:17.500Z,98301.20
2018-11-05T22:17:46.595Z,98297.52
2018-11-05T22:20:16.076Z,98296.61
2018-11-05T22:22:44.768Z,98302.76
2018-11-05T22:25:13.961Z,98302.76
2018-11-05T22:27:42.909Z,98302.08
2018-11-05T22:30:12.230Z,98307.69
2018-11-05T22:32:41.303Z,98310.15
2018-11-05T22:35:11.181Z,98312.24
2018-11-05T22:37:40.191Z,98307.27
2018-11-05T22:40:11.348Z,98313.70
2018-11-05T22:42:40.433Z,98309.31
2018-11-05T22:45:10.037Z,98313.34
2018-11-05T22:47:38.599Z,98311.07
2018-11-05T22:50:07.980Z,98314.44
2018-11-05T22:52:37.330Z,98314.48
2018-11-05T22:55:06.639Z,98312.32
2018-11-05T22:57:36.414Z,98309.90
2018-11-05T23:00:18.250Z,98305.32
2018-11-05T23:02:52.709Z,98303.86
2018-11-05T23:05:22.465Z,98316.16
2018-11-05T23:07:53.491Z,98317.95
2018-11-05T23:10:22.556Z,98319.13
2018-11-05T23:12:51.716Z,98316.13
2018-11-05T23:15:21.328Z,98313.48
2018-11-05T23:17:50.441Z,98312.93
2018-11-05T23:20:20.104Z,98324.88
2018-11-05T23:22:49.024Z,98332.23
2018-11-05T23:25:17.652Z,98327.57
2018-11-05T23:27:46.269Z,98331.28
2018-11-05T23:30:15.309Z,98333.31
2018-11-05T23:32:44.807Z,98338.67
2018-11-05T23:35:13.840Z,98334.29
2018-11-05T23:37:42.996Z,98336.53
2018-11-05T23:40:11.984Z,98335.72
2018-11-05T23:42:41.171Z,98338.38
2018-11-05T23:45:12.412Z,98335.47
2018-11-05T23:47:41.412Z,98331.41
2018-11-05T23:50:11.166Z,98334.13
2018-11-05T23:52:40.548Z,98337.75
2018-11-05T23:55:10.316Z,98333.92
2018-11-05T23:57:39.262Z,98334.98
